sensor_id;sensor_type;location;lat;lon;timestamp;temperature;humidity
22450;DHT22;11392;57.390;-2.468;2023-03-04T00:00:29;3.50;99.90
22450;DHT22;11392;57.390;-2.468;2023-03-04T00:02:56;3.50;99.90
22450;DHT22;11392;57.390;-2.468;2023-03-04T00:05:23;3.50;99.90
22450;DHT22;11392;57.390;-2.468;2023-03-04T00:07:50;3.50;99.90
22450;DHT22;11392;57.390;-2.468;2023-03-04T00:10:17;3.50;99.90
22450;DHT22;11392;57.390;-2.468;2023-03-04T00:12:44;3.50;99.90
22450;DHT22;11392;57.390;-2.468;2023-03-04T00:15:11;3.50;99.90
22450;DHT22;11392;57.390;-2.468;2023-03-04T00:17:38;3.60;99.90
22450;DHT22;11392;57.390;-2.468;2023-03-04T00:20:06;3.50;99.90
22450;DHT22;11392;57.390;-2.468;2023-03-04T00:22:33;3.40;99.90
22450;DHT22;11392;57.390;-2.468;2023-03-04T00:24:59;3.40;99.90
22450;DHT22;11392;57.390;-2.468;2023-03-04T00:27:27;3.30;99.90
22450;DHT22;11392;57.390;-2.468;2023-03-04T00:29:55;3.30;99.90
22450;DHT22;11392;57.390;-2.468;2023-03-04T00:32:22;3.30;99.90
22450;DHT22;11392;57.390;-2.468;2023-03-04T00:34:49;3.20;99.90
22450;DHT22;11392;57.390;-2.468;2023-03-04T00:37:16;3.30;99.90
22450;DHT22;11392;57.390;-2.468;2023-03-04T00:39:43;3.30;99.90
22450;DHT22;11392;57.390;-2.468;2023-03-04T00:42:10;3.30;99.90
22450;DHT22;11392;57.390;-2.468;2023-03-04T00:44:37;3.40;99.90
22450;DHT22;11392;57.390;-2.468;2023-03-04T00:47:04;3.40;99.90
22450;DHT22;11392;57.390;-2.468;2023-03-04T00:49:31;3.30;99.90
22450;DHT22;11392;57.390;-2.468;2023-03-04T00:51:58;3.30;99.90
22450;DHT22;11392;57.390;-2.468;2023-03-04T00:54:25;3.20;99.90
22450;DHT22;11392;57.390;-2.468;2023-03-04T00:56:51;3.20;99.90
22450;DHT22;11392;57.390;-2.468;2023-03-04T00:59:18;3.10;99.90
22450;DHT22;11392;57.390;-2.468;2023-03-04T01:01:45;3.10;99.90
22450;DHT22;11392;57.390;-2.468;2023-03-04T01:04:12;3.10;99.90
22450;DHT22;11392;57.390;-2.468;2023-03-04T01:06:39;3.10;99.90
22450;DHT22;11392;57.390;-2.468;2023-03-04T01:09:06;3.10;99.90
22450;DHT22;11392;57.390;-2.468;2023-03-04T01:11:34;3.00;99.90
22450;DHT22;11392;57.390;-2.468;2023-03-04T01:14:01;3.00;99.90
22450;DHT22;11392;57.390;-2.468;2023-03-04T01:16:28;3.00;99.90
22450;DHT22;11392;57.390;-2.468;2023-03-04T01:18:55;3.00;99.90
22450;DHT22;11392;57.390;-2.468;2023-03-04T01:21:22;3.10;99.90
22450;DHT22;11392;57.390;-2.468;2023-03-04T01:23:49;3.20;99.90
22450;DHT22;11392;57.390;-2.468;2023-03-04T01:26:16;3.20;99.90
22450;DHT22;11392;57.390;-2.468;2023-03-04T01:28:43;3.10;99.90
22450;DHT22;11392;57.390;-2.468;2023-03-04T01:31:10;3.20;99.90
22450;DHT22;11392;57.390;-2.468;2023-03-04T01:33:37;3.30;99.90
22450;DHT22;11392;57.390;-2.468;2023-03-04T01:36:04;3.30;99.90
22450;DHT22;11392;57.390;-2.468;2023-03-04T01:38:31;3.30;99.90
22450;DHT22;11392;57.390;-2.468;2023-03-04T01:40:58;3.30;99.90
22450;DHT22;11392;57.390;-2.468;2023-03-04T01:43:28;3.20;99.90
22450;DHT22;11392;57.390;-2.468;2023-03-04T01:45:56;3.10;99.90
22450;DHT22;11392;57.390;-2.468;2023-03-04T01:48:27;3.10;99.90
22450;DHT22;11392;57.390;-2.468;2023-03-04T01:50:56;3.10;99.90
22450;DHT22;11392;57.390;-2.468;2023-03-04T01:53:26;3.10;99.90
22450;DHT22;11392;57.390;-2.468;2023-03-04T01:55:56;3.10;99.90
22450;DHT22;11392;57.390;-2.468;2023-03-04T01:58:27;3.10;99.90
22450;DHT22;11392;57.390;-2.468;2023-03-04T02:00:55;3.10;99.90
22450;DHT22;11392;57.390;-2.468;2023-03-04T02:03:23;3.10;99.90
22450;DHT22;11392;57.390;-2.468;2023-03-04T02:05:51;3.10;99.90
22450;DHT22;11392;57.390;-2.468;2023-03-04T02:08:21;3.10;99.90
22450;DHT22;11392;57.390;-2.468;2023-03-04T02:10:49;3.10;99.90
22450;DHT22;11392;57.390;-2.468;2023-03-04T02:13:17;3.10;99.90
22450;DHT22;11392;57.390;-2.468;2023-03-04T02:15:45;3.10;99.90
22450;DHT22;11392;57.390;-2.468;2023-03-04T02:18:23;3.10;99.90
22450;DHT22;11392;57.390;-2.468;2023-03-04T02:23:38;3.10;99.90
22450;DHT22;11392;57.390;-2.468;2023-03-04T02:28:47;3.20;99.90
22450;DHT22;11392;57.390;-2.468;2023-03-04T02:34:06;3.20;99.90
22450;DHT22;11392;57.390;-2.468;2023-03-04T02:36:35;3.20;99.90
22450;DHT22;11392;57.390;-2.468;2023-03-04T02:39:22;3.10;99.90
22450;DHT22;11392;57.390;-2.468;2023-03-04T02:41:52;3.20;99.90
22450;DHT22;11392;57.390;-2.468;2023-03-04T02:44:28;3.30;99.90
22450;DHT22;11392;57.390;-2.468;2023-03-04T02:46:57;3.30;99.90
22450;DHT22;11392;57.390;-2.468;2023-03-04T02:49:27;3.30;99.90
22450;DHT22;11392;57.390;-2.468;2023-03-04T02:52:01;3.30;99.90
22450;DHT22;11392;57.390;-2.468;2023-03-04T02:54:28;3.30;99.90
22450;DHT22;11392;57.390;-2.468;2023-03-04T02:57:01;3.30;99.90
22450;DHT22;11392;57.390;-2.468;2023-03-04T02:59:29;3.30;99.90
22450;DHT22;11392;57.390;-2.468;2023-03-04T03:01:56;3.30;99.90
22450;DHT22;11392;57.390;-2.468;2023-03-04T03:04:24;3.30;99.90
22450;DHT22;11392;57.390;-2.468;2023-03-04T03:06:51;3.30;99.90
22450;DHT22;11392;57.390;-2.468;2023-03-04T03:09:19;3.30;99.90
22450;DHT22;11392;57.390;-2.468;2023-03-04T03:11:46;3.30;99.90
22450;DHT22;11392;57.390;-2.468;2023-03-04T03:14:13;3.20;99.90
22450;DHT22;11392;57.390;-2.468;2023-03-04T03:16:40;3.10;99.90
22450;DHT22;11392;57.390;-2.468;2023-03-04T03:19:07;3.20;99.90
22450;DHT22;11392;57.390;-2.468;2023-03-04T03:21:34;3.20;99.90
22450;DHT22;11392;57.390;-2.468;2023-03-04T03:24:01;3.20;99.90
22450;DHT22;11392;57.390;-2.468;2023-03-04T03:26:28;3.30;99.90
22450;DHT22;11392;57.390;-2.468;2023-03-04T03:28:55;3.30;99.90
22450;DHT22;11392;57.390;-2.468;2023-03-04T03:31:21;3.30;99.90
22450;DHT22;11392;57.390;-2.468;2023-03-04T03:33:49;3.30;99.90
22450;DHT22;11392;57.390;-2.468;2023-03-04T03:36:16;3.30;99.90
22450;DHT22;11392;57.390;-2.468;2023-03-04T03:38:42;3.20;99.90
22450;DHT22;11392;57.390;-2.468;2023-03-04T03:41:09;3.10;99.90
22450;DHT22;11392;57.390;-2.468;2023-03-04T03:43:36;3.10;99.90
22450;DHT22;11392;57.390;-2.468;2023-03-04T03:46:04;3.10;99.90
22450;DHT22;11392;57.390;-2.468;2023-03-04T03:48:31;3.00;99.90
22450;DHT22;11392;57.390;-2.468;2023-03-04T03:50:58;3.00;99.90
22450;DHT22;11392;57.390;-2.468;2023-03-04T03:53:24;3.00;99.90
22450;DHT22;11392;57.390;-2.468;2023-03-04T03:55:51;3.10;99.90
22450;DHT22;11392;57.390;-2.468;2023-03-04T03:58:18;3.20;99.90
22450;DHT22;11392;57.390;-2.468;2023-03-04T04:00:45;3.20;99.90
22450;DHT22;11392;57.390;-2.468;2023-03-04T04:03:14;3.20;99.90
22450;DHT22;11392;57.390;-2.468;2023-03-04T04:05:41;3.20;99.90
22450;DHT22;11392;57.390;-2.468;2023-03-04T04:08:17;3.20;99.90
22450;DHT22;11392;57.390;-2.468;2023-03-04T04:10:44;3.20;99.90
22450;DHT22;11392;57.390;-2.468;2023-03-04T04:13:11;3.30;99.90
22450;DHT22;11392;57.390;-2.468;2023-03-04T04:15:38;3.20;99.90
22450;DHT22;11392;57.390;-2.468;2023-03-04T04:18:06;3.20;99.90
22450;DHT22;11392;57.390;-2.468;2023-03-04T04:20:34;3.10;99.90
22450;DHT22;11392;57.390;-2.468;2023-03-04T04:23:01;3.10;99.90
22450;DHT22;11392;57.390;-2.468;2023-03-04T04:25:29;3.10;99.90
22450;DHT22;11392;57.390;-2.468;2023-03-04T04:27:56;3.10;99.90
22450;DHT22;11392;57.390;-2.468;2023-03-04T04:30:23;3.10;99.90
22450;DHT22;11392;57.390;-2.468;2023-03-04T04:32:50;3.20;99.90
22450;DHT22;11392;57.390;-2.468;2023-03-04T04:35:17;3.20;99.90
22450;DHT22;11392;57.390;-2.468;2023-03-04T04:37:44;3.30;99.90
22450;DHT22;11392;57.390;-2.468;2023-03-04T04:40:11;3.30;99.90
22450;DHT22;11392;57.390;-2.468;2023-03-04T04:42:38;3.30;99.90
22450;DHT22;11392;57.390;-2.468;2023-03-04T04:45:06;3.30;99.90
22450;DHT22;11392;57.390;-2.468;2023-03-04T04:47:33;3.30;99.90
22450;DHT22;11392;57.390;-2.468;2023-03-04T04:50:00;3.30;99.90
22450;DHT22;11392;57.390;-2.468;2023-03-04T04:52:27;3.30;99.90
22450;DHT22;11392;57.390;-2.468;2023-03-04T04:54:54;3.20;99.90
22450;DHT22;11392;57.390;-2.468;2023-03-04T04:57:21;3.30;99.90
22450;DHT22;11392;57.390;-2.468;2023-03-04T04:59:48;3.30;99.90
22450;DHT22;11392;57.390;-2.468;2023-03-04T05:02:15;3.30;99.90
22450;DHT22;11392;57.390;-2.468;2023-03-04T05:04:42;3.30;99.90
22450;DHT22;11392;57.390;-2.468;2023-03-04T05:07:09;3.20;99.90
22450;DHT22;11392;57.390;-2.468;2023-03-04T05:09:36;3.20;99.90
22450;DHT22;11392;57.390;-2.468;2023-03-04T05:12:03;3.20;99.90
22450;DHT22;11392;57.390;-2.468;2023-03-04T05:14:30;3.20;99.90
22450;DHT22;11392;57.390;-2.468;2023-03-04T05:16:57;3.20;99.90
22450;DHT22;11392;57.390;-2.468;2023-03-04T05:19:24;3.10;99.90
22450;DHT22;11392;57.390;-2.468;2023-03-04T05:21:51;3.10;99.90
22450;DHT22;11392;57.390;-2.468;2023-03-04T05:24:17;3.10;99.90
22450;DHT22;11392;57.390;-2.468;2023-03-04T05:26:44;3.10;99.90
22450;DHT22;11392;57.390;-2.468;2023-03-04T05:29:11;3.10;99.90
22450;DHT22;11392;57.390;-2.468;2023-03-04T05:31:38;3.20;99.90
22450;DHT22;11392;57.390;-2.468;2023-03-04T05:34:05;3.20;99.90
22450;DHT22;11392;57.390;-2.468;2023-03-04T05:36:32;3.20;99.90
22450;DHT22;11392;57.390;-2.468;2023-03-04T05:38:59;3.20;99.90
22450;DHT22;11392;57.390;-2.468;2023-03-04T05:41:26;3.20;99.90
22450;DHT22;11392;57.390;-2.468;2023-03-04T05:43:53;3.20;99.90
22450;DHT22;11392;57.390;-2.468;2023-03-04T05:46:20;3.30;99.90
22450;DHT22;11392;57.390;-2.468;2023-03-04T05:48:52;3.30;99.90
22450;DHT22;11392;57.390;-2.468;2023-03-04T05:51:20;3.30;99.90
22450;DHT22;11392;57.390;-2.468;2023-03-04T05:53:48;3.30;99.90
22450;DHT22;11392;57.390;-2.468;2023-03-04T05:56:17;3.40;99.90
22450;DHT22;11392;57.390;-2.468;2023-03-04T05:58:44;3.40;99.90
22450;DHT22;11392;57.390;-2.468;2023-03-04T06:01:13;3.30;99.90
22450;DHT22;11392;57.390;-2.468;2023-03-04T06:03:40;3.30;99.90
22450;DHT22;11392;57.390;-2.468;2023-03-04T06:06:09;3.30;99.90
22450;DHT22;11392;57.390;-2.468;2023-03-04T06:08:36;3.30;99.90
22450;DHT22;11392;57.390;-2.468;2023-03-04T06:11:04;3.20;99.90
22450;DHT22;11392;57.390;-2.468;2023-03-04T06:13:31;3.20;99.90
22450;DHT22;11392;57.390;-2.468;2023-03-04T06:15:59;3.10;99.90
22450;DHT22;11392;57.390;-2.468;2023-03-04T06:18:27;3.10;99.90
22450;DHT22;11392;57.390;-2.468;2023-03-04T06:20:56;3.10;99.90
22450;DHT22;11392;57.390;-2.468;2023-03-04T06:23:24;3.10;99.90
22450;DHT22;11392;57.390;-2.468;2023-03-04T06:25:56;3.10;99.90
22450;DHT22;11392;57.390;-2.468;2023-03-04T06:28:24;3.10;99.90
22450;DHT22;11392;57.390;-2.468;2023-03-04T06:30:52;3.10;99.90
22450;DHT22;11392;57.390;-2.468;2023-03-04T06:33:19;3.10;99.90
22450;DHT22;11392;57.390;-2.468;2023-03-04T06:35:46;3.10;99.90
22450;DHT22;11392;57.390;-2.468;2023-03-04T06:38:14;3.10;99.90
22450;DHT22;11392;57.390;-2.468;2023-03-04T06:40:41;3.10;99.90
22450;DHT22;11392;57.390;-2.468;2023-03-04T06:43:07;3.10;99.90
22450;DHT22;11392;57.390;-2.468;2023-03-04T06:45:34;3.10;99.90
22450;DHT22;11392;57.390;-2.468;2023-03-04T06:48:04;3.10;99.90
22450;DHT22;11392;57.390;-2.468;2023-03-04T06:50:31;3.10;99.90
22450;DHT22;11392;57.390;-2.468;2023-03-04T06:52:58;3.10;99.90
22450;DHT22;11392;57.390;-2.468;2023-03-04T06:55:25;3.10;99.90
22450;DHT22;11392;57.390;-2.468;2023-03-04T06:57:52;3.20;99.90
22450;DHT22;11392;57.390;-2.468;2023-03-04T07:00:20;3.20;99.90
22450;DHT22;11392;57.390;-2.468;2023-03-04T07:02:50;3.20;99.90
22450;DHT22;11392;57.390;-2.468;2023-03-04T07:05:20;3.20;99.90
22450;DHT22;11392;57.390;-2.468;2023-03-04T07:07:47;3.30;99.90
22450;DHT22;11392;57.390;-2.468;2023-03-04T07:10:17;3.20;99.90
22450;DHT22;11392;57.390;-2.468;2023-03-04T07:12:44;3.20;99.90
22450;DHT22;11392;57.390;-2.468;2023-03-04T07:15:11;3.30;99.90
22450;DHT22;11392;57.390;-2.468;2023-03-04T07:17:38;3.30;99.90
22450;DHT22;11392;57.390;-2.468;2023-03-04T07:20:06;3.30;99.90
22450;DHT22;11392;57.390;-2.468;2023-03-04T07:22:33;3.30;99.90
22450;DHT22;11392;57.390;-2.468;2023-03-04T07:25:00;3.30;99.90
22450;DHT22;11392;57.390;-2.468;2023-03-04T07:27:27;3.30;99.90
22450;DHT22;11392;57.390;-2.468;2023-03-04T07:29:54;3.30;99.90
22450;DHT22;11392;57.390;-2.468;2023-03-04T07:32:21;3.30;99.90
22450;DHT22;11392;57.390;-2.468;2023-03-04T07:34:48;3.30;99.90
22450;DHT22;11392;57.390;-2.468;2023-03-04T07:37:15;3.30;99.90
22450;DHT22;11392;57.390;-2.468;2023-03-04T07:39:42;3.30;99.90
22450;DHT22;11392;57.390;-2.468;2023-03-04T07:42:09;3.30;99.90
22450;DHT22;11392;57.390;-2.468;2023-03-04T07:44:36;3.40;99.90
22450;DHT22;11392;57.390;-2.468;2023-03-04T07:47:03;3.40;99.90
22450;DHT22;11392;57.390;-2.468;2023-03-04T07:49:30;3.40;99.90
22450;DHT22;11392;57.390;-2.468;2023-03-04T07:51:57;3.40;99.90
22450;DHT22;11392;57.390;-2.468;2023-03-04T07:54:24;3.40;99.90
22450;DHT22;11392;57.390;-2.468;2023-03-04T07:56:51;3.50;99.90
22450;DHT22;11392;57.390;-2.468;2023-03-04T07:59:19;3.60;99.90
22450;DHT22;11392;57.390;-2.468;2023-03-04T08:01:46;3.60;99.90
22450;DHT22;11392;57.390;-2.468;2023-03-04T08:04:13;3.70;99.90
22450;DHT22;11392;57.390;-2.468;2023-03-04T08:06:41;3.70;99.90
22450;DHT22;11392;57.390;-2.468;2023-03-04T08:09:10;3.70;99.90
22450;DHT22;11392;57.390;-2.468;2023-03-04T08:11:38;3.70;99.90
22450;DHT22;11392;57.390;-2.468;2023-03-04T08:14:05;3.80;99.90
22450;DHT22;11392;57.390;-2.468;2023-03-04T08:16:32;3.90;99.90
22450;DHT22;11392;57.390;-2.468;2023-03-04T08:19:01;3.90;99.90
22450;DHT22;11392;57.390;-2.468;2023-03-04T08:21:28;3.90;99.90
22450;DHT22;11392;57.390;-2.468;2023-03-04T08:24:00;4.00;99.90
22450;DHT22;11392;57.390;-2.468;2023-03-04T08:26:32;4.00;99.90
22450;DHT22;11392;57.390;-2.468;2023-03-04T08:29:01;4.10;99.90
22450;DHT22;11392;57.390;-2.468;2023-03-04T08:31:30;4.20;99.90
22450;DHT22;11392;57.390;-2.468;2023-03-04T08:33:57;4.20;99.90
22450;DHT22;11392;57.390;-2.468;2023-03-04T08:36:24;4.20;99.90
22450;DHT22;11392;57.390;-2.468;2023-03-04T08:38:51;4.20;99.90
22450;DHT22;11392;57.390;-2.468;2023-03-04T08:41:18;4.20;99.90
22450;DHT22;11392;57.390;-2.468;2023-03-04T08:43:46;4.20;99.90
22450;DHT22;11392;57.390;-2.468;2023-03-04T08:46:13;4.30;99.90
22450;DHT22;11392;57.390;-2.468;2023-03-04T08:48:40;4.30;99.90
22450;DHT22;11392;57.390;-2.468;2023-03-04T08:51:09;4.40;99.90
22450;DHT22;11392;57.390;-2.468;2023-03-04T08:53:37;4.50;99.90
22450;DHT22;11392;57.390;-2.468;2023-03-04T08:56:05;4.50;99.90
22450;DHT22;11392;57.390;-2.468;2023-03-04T08:58:32;4.50;99.90
22450;DHT22;11392;57.390;-2.468;2023-03-04T09:01:00;4.50;99.90
22450;DHT22;11392;57.390;-2.468;2023-03-04T09:03:27;4.50;99.90
22450;DHT22;11392;57.390;-2.468;2023-03-04T09:05:55;4.50;99.90
22450;DHT22;11392;57.390;-2.468;2023-03-04T09:08:22;4.60;99.90
22450;DHT22;11392;57.390;-2.468;2023-03-04T09:10:52;4.60;99.90
22450;DHT22;11392;57.390;-2.468;2023-03-04T09:13:20;4.70;99.90
22450;DHT22;11392;57.390;-2.468;2023-03-04T09:15:50;4.70;99.90
22450;DHT22;11392;57.390;-2.468;2023-03-04T09:18:20;4.70;99.90
22450;DHT22;11392;57.390;-2.468;2023-03-04T09:20:47;4.80;99.90
22450;DHT22;11392;57.390;-2.468;2023-03-04T09:23:15;4.80;99.90
22450;DHT22;11392;57.390;-2.468;2023-03-04T09:25:43;4.90;99.90
22450;DHT22;11392;57.390;-2.468;2023-03-04T09:28:13;4.90;99.90
22450;DHT22;11392;57.390;-2.468;2023-03-04T09:30:39;5.00;99.90
22450;DHT22;11392;57.390;-2.468;2023-03-04T09:33:07;5.10;99.90
22450;DHT22;11392;57.390;-2.468;2023-03-04T09:35:33;5.00;99.90
22450;DHT22;11392;57.390;-2.468;2023-03-04T09:38:01;5.10;99.90
22450;DHT22;11392;57.390;-2.468;2023-03-04T09:40:44;5.10;99.90
22450;DHT22;11392;57.390;-2.468;2023-03-04T09:43:21;5.20;99.90
22450;DHT22;11392;57.390;-2.468;2023-03-04T09:45:59;5.20;99.90
22450;DHT22;11392;57.390;-2.468;2023-03-04T09:48:31;5.20;99.90
22450;DHT22;11392;57.390;-2.468;2023-03-04T09:54:07;5.30;99.90
22450;DHT22;11392;57.390;-2.468;2023-03-04T09:56:38;5.40;99.90
22450;DHT22;11392;57.390;-2.468;2023-03-04T09:59:29;5.40;99.90
22450;DHT22;11392;57.390;-2.468;2023-03-04T10:02:00;5.50;99.90
22450;DHT22;11392;57.390;-2.468;2023-03-04T10:07:08;5.50;99.90
22450;DHT22;11392;57.390;-2.468;2023-03-04T10:12:14;5.30;99.90
22450;DHT22;11392;57.390;-2.468;2023-03-04T10:15:05;5.30;99.90
22450;DHT22;11392;57.390;-2.468;2023-03-04T10:17:36;5.20;99.90
22450;DHT22;11392;57.390;-2.468;2023-03-04T10:22:48;5.30;99.90
22450;DHT22;11392;57.390;-2.468;2023-03-04T10:25:20;5.40;99.90
22450;DHT22;11392;57.390;-2.468;2023-03-04T10:27:59;5.40;99.90
22450;DHT22;11392;57.390;-2.468;2023-03-04T10:32:58;5.20;99.90
22450;DHT22;11392;57.390;-2.468;2023-03-04T10:35:32;5.20;99.90
22450;DHT22;11392;57.390;-2.468;2023-03-04T10:38:03;5.20;99.90
22450;DHT22;11392;57.390;-2.468;2023-03-04T10:43:03;5.10;99.90
22450;DHT22;11392;57.390;-2.468;2023-03-04T10:45:38;5.10;99.90
22450;DHT22;11392;57.390;-2.468;2023-03-04T10:48:08;5.20;99.90
22450;DHT22;11392;57.390;-2.468;2023-03-04T10:50:43;5.20;99.90
22450;DHT22;11392;57.390;-2.468;2023-03-04T10:53:30;5.20;99.90
22450;DHT22;11392;57.390;-2.468;2023-03-04T10:55:59;5.30;99.90
22450;DHT22;11392;57.390;-2.468;2023-03-04T10:58:26;5.40;99.90
22450;DHT22;11392;57.390;-2.468;2023-03-04T11:01:04;5.40;99.90
22450;DHT22;11392;57.390;-2.468;2023-03-04T11:03:35;5.40;99.90
22450;DHT22;11392;57.390;-2.468;2023-03-04T11:06:21;5.40;99.90
22450;DHT22;11392;57.390;-2.468;2023-03-04T11:08:58;5.50;99.90
22450;DHT22;11392;57.390;-2.468;2023-03-04T11:11:39;5.50;99.90
22450;DHT22;11392;57.390;-2.468;2023-03-04T11:16:57;5.70;99.90
22450;DHT22;11392;57.390;-2.468;2023-03-04T11:19:33;5.70;99.90
22450;DHT22;11392;57.390;-2.468;2023-03-04T11:22:02;5.70;99.90
22450;DHT22;11392;57.390;-2.468;2023-03-04T11:24:32;5.70;99.90
22450;DHT22;11392;57.390;-2.468;2023-03-04T11:27:17;5.80;99.90
22450;DHT22;11392;57.390;-2.468;2023-03-04T11:32:40;5.90;99.90
22450;DHT22;11392;57.390;-2.468;2023-03-04T11:39:10;5.90;99.90
22450;DHT22;11392;57.390;-2.468;2023-03-04T11:41:19;6.00;99.90
22450;DHT22;11392;57.390;-2.468;2023-03-04T11:43:49;5.90;99.90
22450;DHT22;11392;57.390;-2.468;2023-03-04T11:46:55;5.80;99.90
22450;DHT22;11392;57.390;-2.468;2023-03-04T11:58:07;6.20;99.90
22450;DHT22;11392;57.390;-2.468;2023-03-04T12:01:42;6.10;99.90
22450;DHT22;11392;57.390;-2.468;2023-03-04T12:06:59;6.20;99.90
22450;DHT22;11392;57.390;-2.468;2023-03-04T12:09:57;6.30;99.90
22450;DHT22;11392;57.390;-2.468;2023-03-04T12:15:24;6.20;99.90
22450;DHT22;11392;57.390;-2.468;2023-03-04T12:23:34;5.70;99.90
22450;DHT22;11392;57.390;-2.468;2023-03-04T12:31:42;5.30;99.90
22450;DHT22;11392;57.390;-2.468;2023-03-04T12:34:59;5.40;99.90
22450;DHT22;11392;57.390;-2.468;2023-03-04T12:40:33;5.60;99.90
22450;DHT22;11392;57.390;-2.468;2023-03-04T12:46:06;5.70;99.90
22450;DHT22;11392;57.390;-2.468;2023-03-04T12:48:45;5.80;99.90
22450;DHT22;11392;57.390;-2.468;2023-03-04T12:51:27;5.80;99.90
22450;DHT22;11392;57.390;-2.468;2023-03-04T12:54:24;5.80;99.90
22450;DHT22;11392;57.390;-2.468;2023-03-04T12:57:10;5.80;99.90
22450;DHT22;11392;57.390;-2.468;2023-03-04T13:02:39;5.80;99.90
22450;DHT22;11392;57.390;-2.468;2023-03-04T13:14:03;5.80;99.90
22450;DHT22;11392;57.390;-2.468;2023-03-04T13:16:43;5.90;99.90
22450;DHT22;11392;57.390;-2.468;2023-03-04T13:19:42;6.00;99.90
22450;DHT22;11392;57.390;-2.468;2023-03-04T13:25:00;6.30;99.90
22450;DHT22;11392;57.390;-2.468;2023-03-04T13:28:01;6.20;99.90
22450;DHT22;11392;57.390;-2.468;2023-03-04T13:51:41;6.40;99.90
22450;DHT22;11392;57.390;-2.468;2023-03-04T13:54:34;6.40;99.90
22450;DHT22;11392;57.390;-2.468;2023-03-04T13:57:16;6.40;99.90
22450;DHT22;11392;57.390;-2.468;2023-03-04T13:59:45;6.30;99.90
22450;DHT22;11392;57.390;-2.468;2023-03-04T14:04:44;6.60;99.90
22450;DHT22;11392;57.390;-2.468;2023-03-04T14:10:00;6.80;99.90
22450;DHT22;11392;57.390;-2.468;2023-03-04T14:12:31;6.90;99.90
22450;DHT22;11392;57.390;-2.468;2023-03-04T14:17:58;7.20;99.90
22450;DHT22;11392;57.390;-2.468;2023-03-04T14:20:32;7.30;99.90
22450;DHT22;11392;57.390;-2.468;2023-03-04T14:23:01;7.30;99.90
22450;DHT22;11392;57.390;-2.468;2023-03-04T14:25:34;7.40;99.90
22450;DHT22;11392;57.390;-2.468;2023-03-04T14:28:11;7.40;99.90
22450;DHT22;11392;57.390;-2.468;2023-03-04T14:30:52;7.30;99.90
22450;DHT22;11392;57.390;-2.468;2023-03-04T14:33:30;7.20;99.90
22450;DHT22;11392;57.390;-2.468;2023-03-04T14:36:00;7.20;99.90
22450;DHT22;11392;57.390;-2.468;2023-03-04T14:41:04;7.20;99.90
22450;DHT22;11392;57.390;-2.468;2023-03-04T14:43:40;7.20;99.90
22450;DHT22;11392;57.390;-2.468;2023-03-04T14:46:12;7.10;99.90
22450;DHT22;11392;57.390;-2.468;2023-03-04T14:48:46;7.10;99.90
22450;DHT22;11392;57.390;-2.468;2023-03-04T14:51:44;7.10;99.90
22450;DHT22;11392;57.390;-2.468;2023-03-04T14:54:35;7.10;99.90
22450;DHT22;11392;57.390;-2.468;2023-03-04T14:57:20;7.00;99.90
22450;DHT22;11392;57.390;-2.468;2023-03-04T14:59:49;7.00;99.90
22450;DHT22;11392;57.390;-2.468;2023-03-04T15:02:23;6.90;99.90
22450;DHT22;11392;57.390;-2.468;2023-03-04T15:05:18;6.70;99.90
22450;DHT22;11392;57.390;-2.468;2023-03-04T15:08:03;6.70;99.90
22450;DHT22;11392;57.390;-2.468;2023-03-04T15:10:36;6.60;99.90
22450;DHT22;11392;57.390;-2.468;2023-03-04T15:13:06;6.50;99.90
22450;DHT22;11392;57.390;-2.468;2023-03-04T15:18:13;6.50;99.90
22450;DHT22;11392;57.390;-2.468;2023-03-04T15:20:41;6.40;99.90
22450;DHT22;11392;57.390;-2.468;2023-03-04T15:23:08;6.40;99.90
22450;DHT22;11392;57.390;-2.468;2023-03-04T15:25:40;6.40;99.90
22450;DHT22;11392;57.390;-2.468;2023-03-04T15:28:16;6.40;99.90
22450;DHT22;11392;57.390;-2.468;2023-03-04T15:30:43;6.50;99.90
22450;DHT22;11392;57.390;-2.468;2023-03-04T15:33:11;6.60;99.90
22450;DHT22;11392;57.390;-2.468;2023-03-04T15:35:39;6.60;99.90
22450;DHT22;11392;57.390;-2.468;2023-03-04T15:38:10;6.60;99.90
22450;DHT22;11392;57.390;-2.468;2023-03-04T15:40:40;6.60;99.90
22450;DHT22;11392;57.390;-2.468;2023-03-04T15:43:18;6.60;99.90
22450;DHT22;11392;57.390;-2.468;2023-03-04T15:45:46;6.50;99.90
22450;DHT22;11392;57.390;-2.468;2023-03-04T15:48:15;6.60;99.90
22450;DHT22;11392;57.390;-2.468;2023-03-04T15:50:53;6.60;99.90
22450;DHT22;11392;57.390;-2.468;2023-03-04T15:53:36;6.50;99.90
22450;DHT22;11392;57.390;-2.468;2023-03-04T15:56:09;6.50;99.90
22450;DHT22;11392;57.390;-2.468;2023-03-04T15:58:37;6.50;99.90
22450;DHT22;11392;57.390;-2.468;2023-03-04T16:01:05;6.40;99.90
22450;DHT22;11392;57.390;-2.468;2023-03-04T16:03:32;6.40;99.90
22450;DHT22;11392;57.390;-2.468;2023-03-04T16:05:59;6.40;99.90
22450;DHT22;11392;57.390;-2.468;2023-03-04T16:08:26;6.30;99.90
22450;DHT22;11392;57.390;-2.468;2023-03-04T16:10:53;6.30;99.90
22450;DHT22;11392;57.390;-2.468;2023-03-04T16:13:22;6.30;99.90
22450;DHT22;11392;57.390;-2.468;2023-03-04T16:15:50;6.40;99.90
22450;DHT22;11392;57.390;-2.468;2023-03-04T16:18:17;6.30;99.90
22450;DHT22;11392;57.390;-2.468;2023-03-04T16:20:46;6.40;99.90
22450;DHT22;11392;57.390;-2.468;2023-03-04T16:23:18;6.30;99.90
22450;DHT22;11392;57.390;-2.468;2023-03-04T16:25:47;6.30;99.90
22450;DHT22;11392;57.390;-2.468;2023-03-04T16:28:15;6.20;99.90
22450;DHT22;11392;57.390;-2.468;2023-03-04T16:30:42;6.20;99.90
22450;DHT22;11392;57.390;-2.468;2023-03-04T16:33:09;6.10;99.90
22450;DHT22;11392;57.390;-2.468;2023-03-04T16:35:38;6.10;99.90
22450;DHT22;11392;57.390;-2.468;2023-03-04T16:38:21;6.10;99.90
22450;DHT22;11392;57.390;-2.468;2023-03-04T16:40:52;6.10;99.90
22450;DHT22;11392;57.390;-2.468;2023-03-04T16:43:20;6.10;99.90
22450;DHT22;11392;57.390;-2.468;2023-03-04T16:45:47;6.00;99.90
22450;DHT22;11392;57.390;-2.468;2023-03-04T16:48:15;6.10;99.90
22450;DHT22;11392;57.390;-2.468;2023-03-04T16:50:43;6.10;99.90
22450;DHT22;11392;57.390;-2.468;2023-03-04T16:53:35;6.10;99.90
22450;DHT22;11392;57.390;-2.468;2023-03-04T16:56:12;6.10;99.90
22450;DHT22;11392;57.390;-2.468;2023-03-04T16:58:41;6.10;99.90
22450;DHT22;11392;57.390;-2.468;2023-03-04T17:01:27;6.10;99.90
22450;DHT22;11392;57.390;-2.468;2023-03-04T17:03:55;6.10;99.90
22450;DHT22;11392;57.390;-2.468;2023-03-04T17:06:22;6.10;99.90
22450;DHT22;11392;57.390;-2.468;2023-03-04T17:08:49;6.10;99.90
22450;DHT22;11392;57.390;-2.468;2023-03-04T17:11:19;6.00;99.90
22450;DHT22;11392;57.390;-2.468;2023-03-04T17:13:47;6.00;99.90
22450;DHT22;11392;57.390;-2.468;2023-03-04T17:16:15;6.00;99.90
22450;DHT22;11392;57.390;-2.468;2023-03-04T17:18:42;5.90;99.90
22450;DHT22;11392;57.390;-2.468;2023-03-04T17:21:15;5.80;99.90
22450;DHT22;11392;57.390;-2.468;2023-03-04T17:23:42;5.70;99.90
22450;DHT22;11392;57.390;-2.468;2023-03-04T17:26:10;5.60;99.90
22450;DHT22;11392;57.390;-2.468;2023-03-04T17:28:37;5.50;99.90
22450;DHT22;11392;57.390;-2.468;2023-03-04T17:31:13;5.30;99.90
22450;DHT22;11392;57.390;-2.468;2023-03-04T17:33:40;5.30;99.90
22450;DHT22;11392;57.390;-2.468;2023-03-04T17:36:12;5.20;99.90
22450;DHT22;11392;57.390;-2.468;2023-03-04T17:38:40;5.20;99.90
22450;DHT22;11392;57.390;-2.468;2023-03-04T17:41:10;5.10;99.90
22450;DHT22;11392;57.390;-2.468;2023-03-04T17:43:48;5.10;99.90